• Join FlightAware (Why Join?)
  • Login
  • US Flag 
10:24PM EST


 

Airport Tracker/Info


-or-


 

Live Flight TrackerFlight Track Log ✈ ASQ5941 ✈ 13-May-2013 ✈ KORD - KAVP

Flight Track Log - Related Links

Times and Time Zones

All times are in EDT time to prevent confusion due to time zone crossing. See the ASQ5941 flight status page for this flight to view local times or setup timezone preferences in your user account.

Time Position Orientation Groundspeed Altitude Reporting Facility
EDT Latitude Longitude Course Direction KTS MPH feet Rate Location/Type
03:30PM 42.0333 -87.9167 80° East 209 241 3,200  Level Chicago TRACON
03:31PM 42.0333 -87.8333 90° East 265 305 4,600 1,620 Climbing Chicago TRACON
03:33PM 42.0572 -87.3204 78° East  Level FlightAware Approximate
03:33PM 42.0592 -87.6022 81° East 281 323 8,700  Level Chicago Center
03:34PM 42.0798 -87.1734 78° East  Level FlightAware Approximate
03:35PM 42.1000 -87.0261 90° East  Level FlightAware Approximate
03:35PM 42.0703 -87.4922 82° East 293 337 10,700  Level Chicago Center
03:36PM 42.1118 -86.9055 80° East  Level FlightAware Approximate
03:36PM 42.0814 -87.3781 82° East 305 351 12,700  Level Chicago Center
03:37PM 42.0928 -87.2578 83° East 322 371 13,700 900 Climbing Chicago Center
03:38PM 42.1067 -87.1236 82° East 356 410 14,600 1,140 Climbing Chicago Center
03:39PM 42.1164 -86.9547 86° East 376 433 16,100 1,320 Climbing Chicago Center
03:40PM 42.1214 -86.8114 87° East 383 441 17,400 1,020 Climbing Chicago Center
03:41PM 42.1264 -86.6808 87° East 388 447 18,300 1,080 Climbing Chicago Center
03:42PM 42.1322 -86.5028 87° East 397 457 19,700 1,140 Climbing Chicago Center
03:43PM 42.1369 -86.3514 88° East 403 464 20,700 960 Climbing Chicago Center
03:44PM 42.1411 -86.1964 88° East 412 474 21,800 960 Climbing Chicago Center
03:45PM 42.1433 -86.0392 89° East 418 481 22,800 1,140 Climbing Chicago Center
03:46PM 42.1425 -85.8639 90° East 418 481 24,200 1,320 Climbing Chicago Center
03:47PM 42.1403 -85.7114 91° East 412 474 25,600 1,320 Climbing Chicago Center
03:48PM 42.1386 -85.5614 91° East 404 465 27,000 1,320 Climbing Chicago Center
03:49PM 42.1372 -85.4175 91° East 391 450 28,400 1,320 Climbing Chicago Center
03:50PM 42.1397 -85.3164 88° East 389 448 29,300 1,260 Climbing Cleveland Center
03:51PM 42.1375 -85.1619 91° East 384 442 30,500 1,200 Climbing Cleveland Center
03:52PM 42.1350 -85.0161 91° East 384 442 31,700 1,140 Climbing Cleveland Center
03:53PM 42.1319 -84.8731 92° East 384 442 32,800 1,140 Climbing Cleveland Center
03:54PM 42.1289 -84.7328 92° East 384 442 34,000 1,020 Climbing Cleveland Center
03:55PM 42.1278 -84.5900 91° East 384 442 34,900 480 Climbing Cleveland Center
03:56PM 42.1264 -84.4442 91° East 384 442 35,000  Climbing Cleveland Center
03:57PM 42.1369 -84.3133 84° East 384 442 35,000  Level Cleveland Center
03:58PM 42.1542 -84.1631 81° East 390 449 35,000  Level Cleveland Center
03:59PM 42.1614 -83.9953 87° East 412 474 35,000  Level Cleveland Center
04:00PM 42.1581 -83.8269 91° East 430 495 35,000  Level Cleveland Center
04:01PM 42.1519 -83.6642 93° East 442 509 35,000  Level Cleveland Center
04:02PM 42.1506 -83.4764 91° East 442 509 35,000  Level Cleveland Center
04:03PM 42.1444 -83.3053 93° East 442 509 35,000  Level Cleveland Center
04:04PM 42.1381 -83.1314 93° East 454 522 35,000  Level Cleveland Center
04:05PM 42.1356 -82.9575 91° East 459 528 35,000  Level Cleveland Center
04:06PM 42.1306 -82.7867 92° East 459 528 35,000  Level Cleveland Center
04:07PM 42.1233 -82.6183 93° East 459 528 35,000  Level Cleveland Center
04:08PM 42.1200 -82.4419 91° East 459 528 35,000  Level Cleveland Center
04:09PM 42.1122 -82.2767 94° East 459 528 35,000  Level Cleveland Center
04:10PM 42.1058 -82.1225 93° East 454 522 35,000  Level Cleveland Center
04:11PM 42.0997 -81.9517 93° East 454 522 35,000  Level Cleveland Center
04:12PM 42.0936 -81.7639 92° East 459 528 35,000  Level Cleveland Center
04:13PM 42.0847 -81.5903 94° East 464 534 35,000  Level Cleveland Center
04:15PM 42.0706 -81.2489 93° East 459 528 35,000  Level Cleveland Center
04:16PM 42.0611 -81.0808 94° East 459 528 35,000  Level Cleveland Center
04:17PM 42.0533 -80.9103 93° East 459 528 35,000  Level Cleveland Center
04:18PM 42.0453 -80.7369 94° East 459 528 35,000  Level Cleveland Center
04:19PM 42.0372 -80.5803 94° East 465 535 35,000 -540 Level Cleveland Center
04:20PM 42.0286 -80.4014 94° East 465 535 34,000 -960 Descending Cleveland Center
04:21PM 42.0178 -80.2311 95° East 459 528 33,100 -540 Descending Cleveland Center
04:22PM 42.0047 -80.0550 96° East 464 534 33,000 -60 Descending Cleveland Center
04:23PM 41.9847 -79.8681 98° East 464 534 33,000  Level Cleveland Center
04:24PM 41.9692 -79.6950 97° East 464 534 33,000  Level Cleveland Center
04:25PM 41.9508 -79.5194 98° East 464 534 33,000  Level Cleveland Center
04:26PM 41.9325 -79.3494 98° East 464 534 33,000  Level Cleveland Center
04:27PM 41.9183 -79.1936 97° East 464 534 33,000  Level Cleveland Center
04:28PM 41.8994 -79.0181 98° East 464 534 33,000  Level Cleveland Center
04:29PM 41.8756 -78.8264 99° East 464 534 33,000  Level Cleveland Center
04:30PM 41.8583 -78.6511 97° East 464 534 33,000 -660 Level Cleveland Center
04:31PM 41.8386 -78.4789 99° East 464 534 31,700 -1,920 Descending Cleveland Center
04:32PM 41.8186 -78.3039 99° East 464 534 29,200 -2,640 Descending Cleveland Center
04:33PM 41.7986 -78.1375 99° East 464 534 26,500 -2,400 Descending Cleveland Center
04:33PM 41.7889 -78.0347 97° East 437 503 25,000 -1,980 Descending New York Center
04:34PM 41.7694 -77.8714 99° East 431 496 23,100 -1,020 Descending New York Center
04:35PM 41.7517 -77.7136 99° East 431 496 23,000 -60 Descending New York Center
04:36PM 41.7339 -77.5533 98° East 431 496 23,000 -180 Level New York Center
04:37PM 41.7106 -77.3786 100° East 431 496 22,700 -780 Descending New York Center
04:38PM 41.6900 -77.2211 100° East 431 496 21,500 -1,620 Descending New York Center
04:39PM 41.6714 -77.0608 99° East 431 496 19,500 -1,980 Descending New York Center
04:40PM 41.6522 -76.9119 100° East 431 496 17,600 -1,980 Descending New York Center
04:41PM 41.6328 -76.7631 100° East 421 484 15,600 -2,100 Descending New York Center
04:42PM 41.6147 -76.6200 100° East 398 458 13,500 -2,100 Descending New York Center
04:43PM 41.5983 -76.4853 99° East 378 435 11,500 -1,620 Descending New York Center
04:44PM 41.5833 -76.3675 100° East 338 389 10,300 -1,380 Descending New York Center
04:45PM 41.5711 -76.2722 100° East 299 344 8,800 -1,620 Descending New York Center
04:46PM 41.5569 -76.1683 100° East 286 329 7,100 -1,740 Descending New York Center
04:47PM 41.5178 -76.0711 118° Southeast 267 307 5,400 -1,500 Descending New York Center
04:48PM 41.4881 -75.9883 116° Southeast 257 296 4,100 -720 Descending New York Center
04:49PM 41.4858 -75.8969 92° East 245 282 4,000 -60 Descending New York Center
04:50PM 41.4981 -75.8064 80° East 235 270 4,000  Level New York Center
04:51PM 41.5106 -75.7075 80° East 246 283 4,000 -180 Level New York Center
04:52PM 41.4864 -75.6339 114° Southeast 241 277 3,700 -300 Descending New York Center